Time;durP1;ratioP1;P1;durP2;ratioP2;P2;SDS_P1;SDS_P2;PMS_P1;PMS_P2;Temp;Humidity;BMP_temperature;BMP_pressure;BME280_temperature;BME280_humidity;BME280_pressure;Samples;Min_cycle;Max_cycle;Signal;HPM_P1;HPM_P2
2023/06/30 00:00:15;;;;;;;9.80;8.90;;;23.90;16.70;;;;;;5020517;28;20444;-78
2023/06/30 00:02:41;;;;;;;9.73;9.03;;;23.80;16.60;;;;;;5019622;28;20189;-79
2023/06/30 00:05:08;;;;;;;9.67;9.00;;;23.80;16.50;;;;;;5018218;28;20428;-79
2023/06/30 00:07:34;;;;;;;8.80;8.13;;;23.80;16.70;;;;;;5020197;28;20420;-79
2023/06/30 00:09:59;;;;;;;10.27;9.47;;;23.80;16.80;;;;;;5019442;28;20408;-79
2023/06/30 00:12:25;;;;;;;10.47;9.87;;;23.70;16.90;;;;;;5018364;28;20212;-78
2023/06/30 00:14:50;;;;;;;10.40;9.63;;;23.70;16.90;;;;;;5018157;28;20186;-77
2023/06/30 00:17:16;;;;;;;9.70;9.10;;;23.70;16.90;;;;;;5019056;28;20177;-78
2023/06/30 00:19:41;;;;;;;9.03;8.53;;;23.70;17.00;;;;;;5018965;28;20205;-78
2023/06/30 00:22:07;;;;;;;9.67;8.90;;;23.80;17.10;;;;;;5018411;28;20212;-78
2023/06/30 00:24:33;;;;;;;9.60;9.10;;;23.70;17.10;;;;;;5017714;28;20239;-79
2023/06/30 00:26:59;;;;;;;10.03;9.50;;;23.70;17.20;;;;;;5017253;28;20923;-77
2023/06/30 00:29:24;;;;;;;9.83;9.13;;;23.70;17.20;;;;;;5019361;28;20695;-78
2023/06/30 00:31:50;;;;;;;9.63;8.97;;;23.70;17.20;;;;;;5018419;28;20185;-79
2023/06/30 00:34:15;;;;;;;10.67;9.60;;;23.70;17.30;;;;;;5017182;28;20205;-78
2023/06/30 00:36:41;;;;;;;9.87;9.27;;;23.70;17.40;;;;;;5017584;28;20196;-79
2023/06/30 00:39:06;;;;;;;10.00;9.40;;;23.70;17.50;;;;;;5022184;28;20200;-79
2023/06/30 00:41:32;;;;;;;10.40;9.70;;;23.70;17.50;;;;;;5036833;28;20267;-79
2023/06/30 00:43:58;;;;;;;10.33;9.63;;;23.70;17.60;;;;;;5038887;28;20201;-78
2023/06/30 00:46:23;;;;;;;11.83;9.70;;;23.70;17.60;;;;;;5016551;28;20178;-79
2023/06/30 00:48:49;;;;;;;10.40;9.80;;;23.60;17.70;;;;;;5019962;28;20439;-79
2023/06/30 00:51:15;;;;;;;10.17;9.27;;;23.60;18.30;;;;;;5037588;28;20872;-79
2023/06/30 00:53:41;;;;;;;10.13;9.53;;;23.60;17.80;;;;;;5035908;28;20283;-78
2023/06/30 00:56:06;;;;;;;10.90;10.00;;;23.60;17.90;;;;;;5036096;28;20180;-78
2023/06/30 00:58:32;;;;;;;10.23;9.53;;;23.60;18.00;;;;;;5036436;28;20467;-78
2023/06/30 01:01:13;;;;;;;9.87;9.27;;;23.60;18.10;;;;;;5034082;28;20267;-78
2023/06/30 01:03:43;;;;;;;10.27;9.57;;;23.60;18.20;;;;;;5034284;28;20447;-77
2023/06/30 01:06:29;;;;;;;9.93;9.37;;;23.60;18.30;;;;;;5034879;28;20404;-77
2023/06/30 01:09:10;;;;;;;10.00;9.40;;;23.60;18.40;;;;;;5034646;28;20418;-77
2023/06/30 01:11:36;;;;;;;10.03;9.33;;;23.60;18.40;;;;;;5033382;28;20422;-78
2023/06/30 01:14:04;;;;;;;9.37;8.87;;;23.50;18.40;;;;;;5034228;28;20865;-77
2023/06/30 01:16:31;;;;;;;9.50;8.80;;;23.50;18.40;;;;;;5034691;28;20789;-77
2023/06/30 01:18:58;;;;;;;10.77;10.03;;;23.50;18.40;;;;;;5034281;28;20470;-78
2023/06/30 01:21:24;;;;;;;10.60;9.80;;;23.40;18.60;;;;;;5033843;28;20459;-78
2023/06/30 01:24:02;;;;;;;11.13;10.33;;;23.40;18.80;;;;;;5037151;28;20442;-78
2023/06/30 01:26:28;;;;;;;10.20;9.60;;;23.40;18.80;;;;;;5037575;28;20417;-78
2023/06/30 01:28:54;;;;;;;10.90;10.20;;;23.30;18.90;;;;;;5036045;28;20419;-78
2023/06/30 01:31:20;;;;;;;10.53;10.03;;;23.30;18.90;;;;;;5036216;28;20562;-78
2023/06/30 01:33:46;;;;;;;10.70;10.20;;;23.30;19.00;;;;;;5037592;28;20774;-78
2023/06/30 01:36:12;;;;;;;11.20;10.50;;;23.30;19.00;;;;;;5037682;28;20446;-78
2023/06/30 01:38:37;;;;;;;10.27;9.53;;;23.30;19.10;;;;;;5035720;28;20279;-78
2023/06/30 01:41:06;;;;;;;9.67;9.17;;;23.30;19.20;;;;;;5037373;28;20945;-77
2023/06/30 01:43:32;;;;;;;10.67;10.07;;;23.30;19.20;;;;;;5036642;28;20181;-78
2023/06/30 01:45:58;;;;;;;10.33;9.73;;;23.30;19.20;;;;;;5037937;28;20426;-77
2023/06/30 01:48:24;;;;;;;10.43;9.83;;;23.30;19.20;;;;;;5037161;28;20415;-78
2023/06/30 01:50:50;;;;;;;10.27;9.67;;;23.30;19.30;;;;;;5035723;28;20176;-78
2023/06/30 01:53:16;;;;;;;10.50;9.90;;;23.30;19.30;;;;;;5035438;28;20188;-78
2023/06/30 01:55:48;;;;;;;10.60;9.73;;;23.20;19.40;;;;;;5036406;28;20470;-78
2023/06/30 01:58:16;;;;;;;10.43;9.83;;;23.20;19.50;;;;;;5035892;28;20587;-78
2023/06/30 02:00:41;;;;;;;10.63;9.93;;;23.20;19.60;;;;;;5034827;28;20936;-77
2023/06/30 02:03:07;;;;;;;10.93;10.40;;;23.20;19.60;;;;;;5035731;28;20435;-78
2023/06/30 02:05:32;;;;;;;10.90;10.23;;;23.20;19.60;;;;;;5037286;28;20230;-78
2023/06/30 02:07:58;;;;;;;11.80;11.00;;;23.10;19.70;;;;;;5036100;28;20209;-77
2023/06/30 02:10:25;;;;;;;11.73;10.80;;;23.10;19.80;;;;;;5037401;28;20553;-78
2023/06/30 02:12:50;;;;;;;10.77;10.17;;;23.10;20.00;;;;;;5035037;28;20218;-78
2023/06/30 02:15:16;;;;;;;11.20;10.60;;;23.10;20.20;;;;;;5040209;28;20411;-77
2023/06/30 02:17:41;;;;;;;12.60;11.47;;;23.10;20.10;;;;;;5038043;28;20314;-78
2023/06/30 02:20:08;;;;;;;12.57;11.57;;;23.10;20.00;;;;;;5039727;28;20262;-78
2023/06/30 02:22:34;;;;;;;11.90;11.13;;;23.10;20.00;;;;;;5037361;28;20197;-78
2023/06/30 02:25:00;;;;;;;10.93;10.23;;;23.10;20.00;;;;;;5039580;28;20407;-78
2023/06/30 02:27:27;;;;;;;11.43;10.70;;;23.10;20.10;;;;;;5038705;28;20457;-78
2023/06/30 02:29:52;;;;;;;12.00;11.00;;;23.10;20.30;;;;;;5039217;28;20661;-78
2023/06/30 02:32:18;;;;;;;11.23;10.73;;;23.00;20.40;;;;;;5038007;28;20522;-78
2023/06/30 02:34:43;;;;;;;11.67;10.97;;;23.00;20.50;;;;;;5037838;28;20271;-78
2023/06/30 02:37:09;;;;;;;11.93;11.23;;;23.00;20.50;;;;;;5037609;28;20635;-77
2023/06/30 02:39:34;;;;;;;12.50;11.60;;;23.00;20.60;;;;;;5038588;28;20208;-78
2023/06/30 02:42:00;;;;;;;11.97;11.07;;;23.00;20.70;;;;;;5037140;28;20169;-78
2023/06/30 02:44:25;;;;;;;11.33;10.73;;;23.00;20.70;;;;;;5037542;28;20203;-77
2023/06/30 02:46:51;;;;;;;12.53;11.50;;;23.00;20.70;;;;;;5035881;28;20272;-78
2023/06/30 02:49:16;;;;;;;11.73;11.13;;;23.00;20.90;;;;;;5036030;28;20176;-78
2023/06/30 02:51:42;;;;;;;11.83;11.03;;;23.00;20.90;;;;;;5036151;28;20181;-77
2023/06/30 02:54:07;;;;;;;12.33;11.53;;;22.90;20.90;;;;;;5035263;28;20204;-78
2023/06/30 02:56:33;;;;;;;11.80;11.00;;;22.90;20.90;;;;;;5036001;28;20188;-77
2023/06/30 02:58:58;;;;;;;12.70;11.50;;;22.90;20.80;;;;;;5037305;28;20241;-78
2023/06/30 03:01:24;;;;;;;11.77;11.10;;;22.90;20.70;;;;;;5040069;28;20223;-78
2023/06/30 03:03:52;;;;;;;11.63;10.93;;;22.90;20.80;;;;;;5039755;28;20331;-78
2023/06/30 03:06:17;;;;;;;11.77;10.97;;;22.90;20.90;;;;;;5040716;28;20400;-79
2023/06/30 03:08:43;;;;;;;11.43;10.80;;;22.90;21.00;;;;;;5039740;28;20458;-78
2023/06/30 03:11:08;;;;;;;11.57;10.87;;;22.90;21.60;;;;;;5040346;28;20233;-78
2023/06/30 03:13:34;;;;;;;11.37;10.70;;;22.80;20.90;;;;;;5040199;28;20219;-78
2023/06/30 03:16:00;;;;;;;11.60;11.00;;;22.70;21.10;;;;;;5040075;28;20189;-78
2023/06/30 03:18:25;;;;;;;11.50;10.53;;;22.60;21.50;;;;;;5040024;28;20207;-78
2023/06/30 03:20:51;;;;;;;11.50;10.90;;;22.60;21.30;;;;;;5039234;28;20196;-78
2023/06/30 03:23:18;;;;;;;11.40;10.80;;;22.70;21.30;;;;;;5039401;28;20203;-77
2023/06/30 03:25:44;;;;;;;11.90;10.87;;;22.70;21.50;;;;;;5038897;28;20326;-78
2023/06/30 03:28:09;;;;;;;11.97;11.30;;;22.70;21.50;;;;;;5039799;28;20451;-78
2023/06/30 03:30:35;;;;;;;12.40;11.40;;;22.70;21.40;;;;;;5040336;28;20181;-77
2023/06/30 03:33:00;;;;;;;11.53;10.93;;;22.70;21.50;;;;;;5039328;28;20212;-78
2023/06/30 03:35:26;;;;;;;12.23;11.53;;;22.70;21.60;;;;;;5038567;28;20179;-78
2023/06/30 03:37:51;;;;;;;11.80;11.10;;;22.70;21.60;;;;;;5020386;28;20185;-78
2023/06/30 03:40:17;;;;;;;12.53;11.70;;;22.70;21.60;;;;;;5017817;28;20255;-77
2023/06/30 03:42:42;;;;;;;17.63;11.17;;;22.70;21.70;;;;;;5032773;28;20614;-78
2023/06/30 03:45:08;;;;;;;13.83;12.57;;;22.70;21.70;;;;;;5038154;28;20560;-78
2023/06/30 03:47:34;;;;;;;12.33;11.63;;;22.70;21.80;;;;;;5038854;28;20643;-78
2023/06/30 03:49:59;;;;;;;11.60;10.80;;;22.70;21.90;;;;;;5038820;28;20438;-78
2023/06/30 03:52:25;;;;;;;10.90;10.20;;;22.70;22.00;;;;;;5036725;28;20204;-76
2023/06/30 03:54:51;;;;;;;11.37;10.67;;;22.70;22.00;;;;;;5038493;28;20606;-78
2023/06/30 03:57:17;;;;;;;12.20;11.50;;;22.70;22.00;;;;;;5039356;28;20168;-78
2023/06/30 03:59:42;;;;;;;12.57;11.80;;;22.70;22.00;;;;;;5039034;28;20470;-78
2023/06/30 04:02:08;;;;;;;12.60;11.83;;;22.50;22.40;;;;;;5037898;28;20181;-77
2023/06/30 04:04:33;;;;;;;13.27;12.00;;;22.20;23.00;;;;;;5037151;28;20552;-78
2023/06/30 04:06:59;;;;;;;12.33;11.73;;;22.10;23.10;;;;;;5038325;28;20295;-78
2023/06/30 04:09:24;;;;;;;12.90;11.80;;;22.00;23.00;;;;;;5038547;28;20169;-78
2023/06/30 04:11:50;;;;;;;13.60;12.60;;;21.90;23.20;;;;;;5037911;28;20200;-78
2023/06/30 04:14:16;;;;;;;13.00;12.20;;;21.90;23.50;;;;;;5038101;28;20196;-78
2023/06/30 04:16:41;;;;;;;12.80;12.10;;;21.80;23.40;;;;;;5038669;28;20191;-78
2023/06/30 04:19:07;;;;;;;12.17;11.47;;;21.90;23.50;;;;;;5038249;28;20458;-77
2023/06/30 04:21:33;;;;;;;12.70;11.90;;;22.00;23.50;;;;;;5039143;28;20188;-78
2023/06/30 04:23:58;;;;;;;13.20;12.40;;;22.10;23.10;;;;;;5041161;28;20219;-78
2023/06/30 04:26:24;;;;;;;12.70;12.00;;;22.00;23.10;;;;;;5042054;28;20306;-79
2023/06/30 04:28:49;;;;;;;13.00;12.30;;;21.90;23.10;;;;;;5035902;28;20238;-77
2023/06/30 04:31:15;;;;;;;13.37;12.47;;;22.00;23.40;;;;;;5034250;28;20181;-77
2023/06/30 04:33:40;;;;;;;13.70;12.43;;;21.90;23.50;;;;;;5035939;28;20255;-78
2023/06/30 04:36:07;;;;;;;12.70;11.83;;;21.90;23.30;;;;;;5035060;28;20177;-78
2023/06/30 04:38:35;;;;;;;12.80;12.10;;;22.00;23.20;;;;;;5037812;28;20196;-77
2023/06/30 04:41:01;;;;;;;13.67;12.77;;;22.00;23.00;;;;;;5008779;28;20417;-77
2023/06/30 04:43:27;;;;;;;12.60;11.80;;;22.00;23.10;;;;;;5015160;28;20486;-78
2023/06/30 04:45:52;;;;;;;13.40;12.23;;;22.10;23.10;;;;;;5015551;28;20546;-78
2023/06/30 04:48:18;;;;;;;11.93;11.33;;;22.10;22.70;;;;;;5015795;28;20201;-78
2023/06/30 04:50:44;;;;;;;12.70;11.90;;;22.20;22.50;;;;;;5017690;28;20170;-79
2023/06/30 04:53:09;;;;;;;13.00;12.20;;;22.30;22.60;;;;;;5016528;28;20197;-78
2023/06/30 04:55:35;;;;;;;12.53;11.80;;;22.40;22.50;;;;;;5018265;28;20192;-81
2023/06/30 04:58:04;;;;;;;11.43;10.80;;;22.50;22.20;;;;;;5036411;28;20283;-80
2023/06/30 05:00:34;;;;;;;12.13;11.43;;;22.50;22.00;;;;;;5033350;28;20795;-80
2023/06/30 05:03:09;;;;;;;12.33;11.73;;;22.50;21.60;;;;;;5020628;28;20432;-79
2023/06/30 05:05:35;;;;;;;12.07;11.13;;;22.50;21.60;;;;;;5016475;28;20451;-80
2023/06/30 05:08:00;;;;;;;12.63;11.83;;;22.30;21.90;;;;;;5016032;28;20408;-80
2023/06/30 05:10:28;;;;;;;12.30;11.60;;;22.20;23.20;;;;;;5019281;28;20186;-80
2023/06/30 05:12:54;;;;;;;15.37;13.83;;;22.10;27.30;;;;;;5017274;28;20612;-80
2023/06/30 05:15:19;;;;;;;13.90;13.10;;;22.00;28.30;;;;;;5020699;28;20436;-81
2023/06/30 05:17:45;;;;;;;14.93;13.80;;;21.80;29.60;;;;;;5020666;28;20180;-81
2023/06/30 05:20:11;;;;;;;15.93;14.70;;;21.60;30.00;;;;;;5018848;28;20188;-80
2023/06/30 05:22:36;;;;;;;15.50;14.60;;;21.50;34.30;;;;;;5020221;28;20189;-80
2023/06/30 05:25:02;;;;;;;16.53;15.40;;;21.30;36.50;;;;;;5019518;28;20416;-79
2023/06/30 05:27:28;;;;;;;16.70;15.10;;;21.10;38.20;;;;;;5019320;28;20186;-77
2023/06/30 05:29:53;;;;;;;17.27;15.90;;;21.00;40.90;;;;;;5017508;28;20434;-79
2023/06/30 05:32:19;;;;;;;17.47;16.10;;;20.80;42.60;;;;;;5015959;28;20228;-78
2023/06/30 05:34:46;;;;;;;16.27;15.17;;;20.70;44.30;;;;;;5016685;28;20208;-78
2023/06/30 05:37:12;;;;;;;15.80;14.80;;;20.60;45.30;;;;;;5015605;28;20181;-78
2023/06/30 05:39:38;;;;;;;18.87;17.57;;;20.50;46.80;;;;;;5018143;28;20478;-78
2023/06/30 05:42:04;;;;;;;16.03;15.00;;;20.40;47.50;;;;;;5018476;28;20170;-79
2023/06/30 05:44:30;;;;;;;17.50;16.00;;;20.50;47.90;;;;;;5018008;28;20510;-78
2023/06/30 05:46:55;;;;;;;15.73;14.60;;;20.50;48.80;;;;;;5016564;28;20554;-78
2023/06/30 05:49:21;;;;;;;15.70;14.80;;;20.60;49.00;;;;;;5016105;28;20215;-77
2023/06/30 05:51:46;;;;;;;17.43;16.27;;;20.70;47.40;;;;;;5019937;28;20177;-79
2023/06/30 05:54:12;;;;;;;17.43;16.23;;;20.70;45.70;;;;;;5022063;28;20207;-81
2023/06/30 05:56:38;;;;;;;17.40;16.30;;;20.80;46.10;;;;;;5023565;28;20207;-81
2023/06/30 05:59:04;;;;;;;17.70;16.50;;;20.70;47.40;;;;;;5024269;28;20990;-80
2023/06/30 06:01:30;;;;;;;17.57;16.03;;;20.60;48.70;;;;;;5023874;28;20643;-79
2023/06/30 06:03:55;;;;;;;16.17;15.03;;;20.50;46.30;;;;;;5023799;28;20435;-79
2023/06/30 06:06:22;;;;;;;18.33;16.47;;;20.50;49.00;;;;;;5024732;28;20185;-80
2023/06/30 06:08:48;;;;;;;16.97;15.87;;;20.40;47.50;;;;;;5023177;28;20527;-78
2023/06/30 06:11:16;;;;;;;18.57;17.07;;;20.30;45.90;;;;;;5025946;28;20459;-79
2023/06/30 06:13:42;;;;;;;16.80;15.57;;;20.40;46.90;;;;;;5028310;28;20221;-78
2023/06/30 06:16:08;;;;;;;16.87;15.87;;;20.50;45.90;;;;;;5027688;28;20416;-79
2023/06/30 06:18:34;;;;;;;16.60;15.40;;;20.60;46.20;;;;;;5023663;28;20219;-78
2023/06/30 06:21:05;;;;;;;17.93;16.53;;;20.70;46.30;;;;;;5023937;28;20475;-78
2023/06/30 06:23:31;;;;;;;17.20;16.10;;;20.90;45.90;;;;;;5028409;28;20217;-79
2023/06/30 06:25:56;;;;;;;17.13;15.97;;;21.00;45.60;;;;;;5027091;28;20412;-78
2023/06/30 06:28:22;;;;;;;18.37;17.17;;;21.00;44.40;;;;;;5022355;28;20181;-79
2023/06/30 06:30:48;;;;;;;17.10;15.80;;;21.00;43.90;;;;;;5020504;28;20181;-79
2023/06/30 06:33:14;;;;;;;19.40;18.10;;;21.00;44.90;;;;;;5020177;28;20201;-79
2023/06/30 06:35:39;;;;;;;16.83;15.93;;;21.10;45.20;;;;;;5022085;28;20476;-78
2023/06/30 06:38:05;;;;;;;17.60;16.33;;;21.10;45.00;;;;;;5020114;28;20204;-79
2023/06/30 06:40:30;;;;;;;19.07;17.60;;;21.20;44.50;;;;;;5020210;28;20520;-78
2023/06/30 06:42:56;;;;;;;18.40;16.73;;;21.20;43.10;;;;;;5019938;28;20189;-79
2023/06/30 06:45:23;;;;;;;17.90;16.60;;;21.10;44.20;;;;;;5021684;28;20173;-79
2023/06/30 06:48:18;;;;;;;17.33;16.33;;;20.90;45.40;;;;;;5021442;28;20400;-79
2023/06/30 06:50:44;;;;;;;18.07;16.77;;;20.90;45.10;;;;;;5021437;28;20418;-79
2023/06/30 06:53:09;;;;;;;17.97;16.77;;;21.00;45.60;;;;;;5022441;28;20455;-79
2023/06/30 06:55:35;;;;;;;18.83;17.50;;;21.10;45.70;;;;;;5019458;28;20170;-77
2023/06/30 06:58:01;;;;;;;18.37;17.27;;;21.20;45.80;;;;;;5017828;28;20264;-78
2023/06/30 07:00:27;;;;;;;19.13;17.63;;;21.10;42.10;;;;;;5014164;28;20648;-77
2023/06/30 07:02:53;;;;;;;18.53;17.10;;;21.00;43.20;;;;;;5013218;28;20193;-78
2023/06/30 07:05:19;;;;;;;18.90;17.63;;;20.90;43.70;;;;;;5014962;28;20396;-77
2023/06/30 07:07:44;;;;;;;18.90;17.60;;;20.70;43.70;;;;;;5013366;28;20222;-77
2023/06/30 07:10:11;;;;;;;18.60;17.50;;;20.60;45.50;;;;;;5014595;28;20628;-77
2023/06/30 07:12:37;;;;;;;18.03;16.93;;;20.50;46.60;;;;;;5013978;28;20556;-76
2023/06/30 07:15:02;;;;;;;19.90;18.60;;;20.50;46.00;;;;;;5014305;28;20432;-77
2023/06/30 07:17:28;;;;;;;17.87;16.63;;;20.50;46.10;;;;;;5014032;28;20534;-77
2023/06/30 07:19:54;;;;;;;17.90;16.23;;;20.50;45.90;;;;;;5012789;28;20200;-77
2023/06/30 07:22:21;;;;;;;19.07;17.80;;;20.50;45.60;;;;;;5015275;28;20223;-77
2023/06/30 07:24:47;;;;;;;17.63;16.43;;;20.50;45.90;;;;;;5015196;28;20197;-79
2023/06/30 07:27:12;;;;;;;18.03;16.83;;;20.40;45.80;;;;;;5019566;28;20427;-78
2023/06/30 07:29:38;;;;;;;18.57;17.33;;;20.40;46.40;;;;;;5018153;28;20227;-78
2023/06/30 07:32:04;;;;;;;19.97;18.40;;;20.50;46.50;;;;;;5018493;28;20177;-79
2023/06/30 07:34:33;;;;;;;18.63;17.10;;;20.70;47.60;;;;;;5019959;28;20729;-79
2023/06/30 07:36:59;;;;;;;17.07;16.07;;;20.70;47.20;;;;;;5018125;28;20427;-78
2023/06/30 07:39:24;;;;;;;18.57;17.37;;;20.70;47.60;;;;;;5019762;28;20456;-77
2023/06/30 07:41:51;;;;;;;17.77;16.70;;;20.70;49.90;;;;;;5017503;28;20709;-78
2023/06/30 07:44:17;;;;;;;17.60;16.33;;;20.70;51.10;;;;;;5018349;28;20189;-78
2023/06/30 07:46:42;;;;;;;18.57;16.90;;;20.60;51.00;;;;;;5019641;28;20472;-77
2023/06/30 07:49:08;;;;;;;19.73;17.93;;;20.70;50.30;;;;;;5020426;28;20774;-78
2023/06/30 07:51:33;;;;;;;19.60;18.00;;;20.60;50.30;;;;;;5019741;28;20181;-78
2023/06/30 07:53:59;;;;;;;19.10;17.40;;;20.60;51.00;;;;;;5020331;28;20213;-77
2023/06/30 07:56:24;;;;;;;19.23;17.93;;;20.60;50.90;;;;;;5018886;28;20200;-78
2023/06/30 07:58:50;;;;;;;18.87;17.37;;;20.60;50.90;;;;;;5016733;28;20216;-78
2023/06/30 08:01:15;;;;;;;20.27;18.37;;;20.70;50.40;;;;;;5018426;28;20173;-78
2023/06/30 08:03:41;;;;;;;19.57;18.07;;;20.80;48.10;;;;;;5028665;28;20207;-77
2023/06/30 08:06:06;;;;;;;20.27;18.80;;;20.60;47.50;;;;;;5040835;28;20189;-78
2023/06/30 08:08:32;;;;;;;20.03;18.53;;;20.60;47.40;;;;;;5040033;28;20203;-78
2023/06/30 08:10:58;;;;;;;20.90;19.20;;;20.70;46.70;;;;;;5038475;28;20184;-78
2023/06/30 08:13:28;;;;;;;21.07;19.27;;;20.70;45.60;;;;;;5038564;28;20494;-78
2023/06/30 08:15:53;;;;;;;22.30;20.27;;;20.70;46.80;;;;;;5038591;28;20893;-80
2023/06/30 08:18:19;;;;;;;20.97;19.27;;;20.50;47.30;;;;;;5039328;28;20461;-79
2023/06/30 08:20:44;;;;;;;21.23;19.33;;;20.50;47.00;;;;;;5037515;28;20177;-80
2023/06/30 08:23:12;;;;;;;19.97;18.50;;;20.50;47.60;;;;;;5036402;28;20606;-79
2023/06/30 08:25:37;;;;;;;22.57;20.57;;;20.50;46.30;;;;;;5037947;28;20619;-79
2023/06/30 08:28:03;;;;;;;21.77;20.03;;;20.40;47.40;;;;;;5037593;28;20461;-79
2023/06/30 08:30:28;;;;;;;21.10;19.40;;;20.40;47.80;;;;;;5038106;28;20175;-79
2023/06/30 08:32:54;;;;;;;21.70;19.90;;;20.50;46.60;;;;;;5022926;28;20672;-79
2023/06/30 08:35:20;;;;;;;21.53;19.63;;;20.50;46.10;;;;;;5018792;28;20173;-78
2023/06/30 08:37:45;;;;;;;21.93;20.00;;;20.40;47.60;;;;;;5018278;28;20272;-78
2023/06/30 08:40:12;;;;;;;23.50;21.50;;;20.50;46.50;;;;;;5014546;28;20280;-78
2023/06/30 08:42:43;;;;;;;22.90;21.07;;;20.50;45.80;;;;;;5011941;28;20248;-77
2023/06/30 08:45:09;;;;;;;23.13;21.03;;;20.60;47.40;;;;;;5012390;28;20395;-77
2023/06/30 08:47:37;;;;;;;20.90;19.10;;;20.60;47.70;;;;;;5012372;28;20976;-76
2023/06/30 08:50:04;;;;;;;21.50;19.80;;;20.50;49.30;;;;;;5010797;28;20931;-77
2023/06/30 08:52:29;;;;;;;23.50;21.07;;;20.50;48.80;;;;;;5010557;28;20455;-77
2023/06/30 08:54:55;;;;;;;23.27;21.07;;;20.50;50.80;;;;;;5012306;28;20412;-77
2023/06/30 08:57:21;;;;;;;23.83;21.83;;;20.40;51.20;;;;;;5012543;28;20200;-78
2023/06/30 08:59:46;;;;;;;22.07;20.00;;;20.30;53.10;;;;;;5011275;28;20742;-78
2023/06/30 09:02:13;;;;;;;21.63;19.63;;;20.30;53.70;;;;;;5010937;28;20511;-77
2023/06/30 09:04:40;;;;;;;21.40;19.53;;;20.40;52.00;;;;;;5010934;28;20177;-77
2023/06/30 09:07:09;;;;;;;20.87;19.13;;;20.40;51.80;;;;;;5012245;28;20463;-78
2023/06/30 09:09:42;;;;;;;21.57;19.70;;;20.40;53.20;;;;;;5010698;28;20427;-78
2023/06/30 09:12:09;;;;;;;20.43;18.93;;;20.20;52.90;;;;;;5011845;28;20426;-77
2023/06/30 09:14:38;;;;;;;20.50;18.90;;;20.20;53.60;;;;;;5011253;28;21062;-77
2023/06/30 09:17:04;;;;;;;21.43;19.57;;;20.20;54.00;;;;;;5011486;28;20420;-77
2023/06/30 09:19:29;;;;;;;20.23;18.63;;;20.30;55.00;;;;;;5012116;28;20487;-77
2023/06/30 09:21:58;;;;;;;20.23;18.73;;;20.40;54.50;;;;;;5011498;28;20862;-77
2023/06/30 09:24:24;;;;;;;20.10;18.70;;;20.40;53.30;;;;;;5011421;28;20903;-77
2023/06/30 09:26:50;;;;;;;21.43;19.63;;;20.50;51.30;;;;;;5012148;28;20413;-77
2023/06/30 09:29:20;;;;;;;18.23;16.90;;;20.50;50.90;;;;;;5011964;28;20185;-76
2023/06/30 09:31:50;;;;;;;19.50;17.90;;;20.60;50.90;;;;;;5011611;28;20408;-77
2023/06/30 09:34:15;;;;;;;20.13;18.43;;;20.60;50.40;;;;;;5011897;28;20474;-76
2023/06/30 09:36:52;;;;;;;19.60;18.10;;;20.60;50.60;;;;;;5011754;28;20447;-77
2023/06/30 09:39:18;;;;;;;20.10;18.60;;;20.60;50.60;;;;;;5011641;28;20617;-75
2023/06/30 09:41:45;;;;;;;19.57;18.07;;;20.70;50.70;;;;;;5011104;28;20405;-76
2023/06/30 09:44:11;;;;;;;21.00;19.07;;;20.70;51.00;;;;;;5015801;28;20905;-76
2023/06/30 09:46:45;;;;;;;20.13;18.73;;;20.70;50.40;;;;;;5012448;28;20423;-76
2023/06/30 09:49:21;;;;;;;19.80;18.30;;;20.70;49.60;;;;;;5012159;28;20458;-75
2023/06/30 09:51:47;;;;;;;20.23;18.57;;;20.70;49.80;;;;;;5011301;28;20775;-77
2023/06/30 09:54:17;;;;;;;19.10;17.60;;;20.80;49.70;;;;;;5011607;28;20431;-76
2023/06/30 09:56:42;;;;;;;19.60;18.00;;;20.80;50.60;;;;;;5011455;28;20256;-76
2023/06/30 09:59:08;;;;;;;18.20;16.90;;;20.80;50.00;;;;;;5010491;28;21228;-76
2023/06/30 10:01:34;;;;;;;19.00;17.50;;;20.80;50.00;;;;;;5009746;28;20193;-76
2023/06/30 10:04:00;;;;;;;19.20;17.80;;;20.90;50.50;;;;;;5010754;28;20211;-76
2023/06/30 10:06:28;;;;;;;19.37;18.00;;;20.90;49.40;;;;;;5011463;28;20786;-76
2023/06/30 10:08:56;;;;;;;18.53;17.10;;;20.90;48.80;;;;;;5011293;28;20256;-76
2023/06/30 10:11:23;;;;;;;18.50;17.20;;;20.90;49.30;;;;;;5012115;28;20456;-74
2023/06/30 10:13:53;;;;;;;17.73;16.53;;;20.90;48.80;;;;;;5012422;28;20876;-76
2023/06/30 10:16:21;;;;;;;18.90;17.50;;;20.90;48.60;;;;;;5015490;28;20431;-75
2023/06/30 10:18:48;;;;;;;18.33;17.00;;;20.90;48.90;;;;;;5010808;28;20486;-75
2023/06/30 10:21:14;;;;;;;18.10;16.60;;;20.90;49.20;;;;;;5010550;28;20413;-75
2023/06/30 10:23:42;;;;;;;18.20;17.00;;;20.90;48.90;;;;;;5010966;28;20482;-76
2023/06/30 10:26:09;;;;;;;18.90;17.23;;;20.90;49.20;;;;;;5010905;28;20184;-75
2023/06/30 10:28:35;;;;;;;18.77;17.37;;;20.90;49.40;;;;;;5009918;28;20795;-75
2023/06/30 10:31:02;;;;;;;19.87;18.47;;;20.90;49.30;;;;;;5009461;28;20428;-75
2023/06/30 10:33:28;;;;;;;19.20;17.60;;;21.00;50.20;;;;;;5010349;28;20910;-75
2023/06/30 10:35:54;;;;;;;18.67;17.27;;;20.90;50.30;;;;;;5014321;28;20455;-75
2023/06/30 10:38:20;;;;;;;18.27;17.07;;;21.00;50.70;;;;;;5014269;28;20197;-75
2023/06/30 10:40:46;;;;;;;20.33;18.57;;;21.00;50.70;;;;;;5014227;28;20419;-75
2023/06/30 10:43:13;;;;;;;20.40;18.77;;;21.00;51.30;;;;;;5013920;28;20432;-76
2023/06/30 10:46:07;;;;;;;19.93;18.40;;;21.00;51.30;;;;;;5014365;28;20416;-75
2023/06/30 10:48:33;;;;;;;20.77;19.27;;;21.00;50.70;;;;;;5013131;28;20431;-75
2023/06/30 10:50:58;;;;;;;20.80;19.10;;;21.00;51.30;;;;;;5014131;28;20420;-75
2023/06/30 10:53:26;;;;;;;20.27;18.77;;;21.00;51.70;;;;;;5013759;28;20200;-75
2023/06/30 10:55:56;;;;;;;22.40;20.50;;;21.00;51.30;;;;;;5013978;28;20216;-75
2023/06/30 10:58:23;;;;;;;22.90;21.07;;;21.00;51.30;;;;;;5014040;28;20457;-76
2023/06/30 11:01:03;;;;;;;23.13;21.33;;;21.00;50.70;;;;;;5014070;28;20409;-75
2023/06/30 11:03:55;;;;;;;23.07;21.13;;;21.10;49.80;;;;;;5012423;28;20440;-75
2023/06/30 11:06:21;;;;;;;22.60;20.80;;;21.10;50.00;;;;;;5013816;28;20409;-75
2023/06/30 11:09:03;;;;;;;24.20;22.30;;;20.90;51.20;;;;;;5013955;28;20929;-75
2023/06/30 11:11:46;;;;;;;24.93;23.03;;;20.80;51.60;;;;;;5013154;28;20921;-75
2023/06/30 11:14:11;;;;;;;24.27;22.30;;;20.90;52.10;;;;;;5013783;28;20871;-76
2023/06/30 11:17:04;;;;;;;25.43;23.37;;;20.90;52.90;;;;;;5013227;28;20423;-75
2023/06/30 11:19:29;;;;;;;25.47;23.37;;;20.90;52.60;;;;;;5015688;28;20224;-75
2023/06/30 11:22:23;;;;;;;26.37;24.30;;;20.90;52.50;;;;;;5018683;28;20448;-75
2023/06/30 11:24:49;;;;;;;26.07;23.57;;;21.00;51.70;;;;;;5017431;28;20169;-75
2023/06/30 11:27:15;;;;;;;26.23;23.80;;;21.00;51.30;;;;;;5033354;28;20495;-75
2023/06/30 11:29:41;;;;;;;27.10;25.00;;;21.00;51.30;;;;;;5033274;28;20188;-75
2023/06/30 11:32:07;;;;;;;28.60;26.27;;;21.10;51.40;;;;;;5032647;28;20462;-75
2023/06/30 11:34:33;;;;;;;26.80;24.70;;;21.10;49.70;;;;;;5022788;28;20420;-75
2023/06/30 11:37:05;;;;;;;29.30;27.10;;;21.00;49.60;;;;;;5012288;28;20416;-75
2023/06/30 11:39:30;;;;;;;29.47;26.97;;;20.80;51.10;;;;;;5013135;28;20448;-75
2023/06/30 11:41:56;;;;;;;30.27;27.70;;;20.80;53.40;;;;;;5013527;28;20563;-75
2023/06/30 11:44:22;;;;;;;30.17;27.67;;;20.70;52.30;;;;;;5014162;28;20173;-76
2023/06/30 11:46:47;;;;;;;28.50;26.10;;;20.70;52.30;;;;;;5013423;28;20197;-77
2023/06/30 11:49:13;;;;;;;28.63;26.37;;;20.70;52.80;;;;;;5012782;28;20181;-77
2023/06/30 11:51:38;;;;;;;28.93;26.53;;;20.80;53.20;;;;;;5013629;28;20513;-76
2023/06/30 11:54:07;;;;;;;29.13;26.57;;;20.80;51.10;;;;;;5014010;28;20196;-76
2023/06/30 11:56:33;;;;;;;29.70;27.20;;;20.90;51.20;;;;;;5011023;28;20653;-76
2023/06/30 11:58:58;;;;;;;28.47;26.27;;;20.90;51.10;;;;;;5014055;28;20443;-76
2023/06/30 12:01:24;;;;;;;29.10;26.50;;;20.90;51.90;;;;;;5013642;28;20515;-76
2023/06/30 12:04:13;;;;;;;32.20;29.23;;;21.00;51.30;;;;;;5012587;28;20538;-77
2023/06/30 12:06:45;;;;;;;30.77;28.17;;;21.00;50.10;;;;;;5006107;28;20339;-77
2023/06/30 12:09:11;;;;;;;30.10;27.67;;;21.10;49.50;;;;;;5013995;28;20918;-77
2023/06/30 12:11:40;;;;;;;28.73;26.30;;;21.10;50.10;;;;;;5013139;28;20503;-77
2023/06/30 12:14:10;;;;;;;27.57;25.37;;;21.10;49.80;;;;;;5012335;28;20217;-77
2023/06/30 12:16:48;;;;;;;30.67;27.87;;;21.20;49.10;;;;;;5013791;28;20431;-78
2023/06/30 12:19:13;;;;;;;28.77;26.57;;;21.20;48.40;;;;;;5013694;28;20439;-78
2023/06/30 12:22:09;;;;;;;27.30;25.07;;;21.30;47.60;;;;;;5013591;28;20927;-77
2023/06/30 12:24:35;;;;;;;27.40;25.00;;;21.30;46.90;;;;;;5012719;28;20174;-77
2023/06/30 12:27:07;;;;;;;29.80;27.30;;;21.30;47.10;;;;;;5013274;28;20987;-77